createdAt,value
2023-05-09T00:00:56.689Z,645.2308
2023-05-09T00:01:59.197Z,645.8461
2023-05-09T00:03:01.848Z,640.6154
2023-05-09T00:04:04.355Z,634.9231
2023-05-09T00:05:06.976Z,638.3077
2023-05-09T00:06:09.528Z,644.7692
2023-05-09T00:07:12.237Z,640.6923
2023-05-09T00:08:14.727Z,642.7692
2023-05-09T00:09:17.349Z,644.6154
2023-05-09T00:10:19.919Z,643.6154
2023-05-09T00:11:22.534Z,644.6923
2023-05-09T00:12:25.105Z,646.6154
2023-05-09T00:13:27.749Z,648.2308
2023-05-09T00:14:30.298Z,646.0769
2023-05-09T00:15:32.924Z,646.1539
2023-05-09T00:16:35.887Z,646.0000
2023-05-09T00:17:38.143Z,648.6923
2023-05-09T00:18:40.701Z,649.6154
2023-05-09T00:19:43.321Z,648.4615
2023-05-09T00:20:45.898Z,646.2308
2023-05-09T00:21:48.470Z,646.3846
2023-05-09T00:22:51.193Z,647.2308
2023-05-09T00:23:53.668Z,647.6154
2023-05-09T00:24:56.289Z,646.9231
2023-05-09T00:25:58.862Z,644.2308
2023-05-09T00:27:01.483Z,645.7692
2023-05-09T00:28:04.049Z,646.3846
2023-05-09T00:30:40.861Z,680.2143
2023-05-09T00:31:43.481Z,673.4615
2023-05-09T00:32:46.102Z,668.4615
2023-05-09T00:33:48.625Z,665.8461
2023-05-09T00:34:51.248Z,660.2308
2023-05-09T00:35:53.824Z,658.0769
2023-05-09T00:36:56.466Z,659.0769
2023-05-09T00:37:59.134Z,658.3077
2023-05-09T00:39:01.679Z,660.4615
2023-05-09T00:40:04.232Z,660.6154
2023-05-09T00:41:06.849Z,663.3846
2023-05-09T00:42:09.421Z,665.0769
2023-05-09T00:43:12.045Z,664.3077
2023-05-09T00:44:14.652Z,666.2308
2023-05-09T00:46:27.388Z,686.6429
2023-05-09T00:47:29.988Z,671.0769
2023-05-09T00:48:32.557Z,668.6154
2023-05-09T00:49:35.138Z,667.5385
2023-05-09T00:50:37.778Z,667.3846
2023-05-09T00:51:40.359Z,665.8461
2023-05-09T00:52:42.973Z,666.6923
2023-05-09T00:53:45.721Z,665.0769
2023-05-09T00:54:48.182Z,668.7692
2023-05-09T00:55:50.755Z,671.7692
2023-05-09T00:56:53.384Z,673.8461
2023-05-09T00:57:55.966Z,673.5385
2023-05-09T00:58:58.598Z,673.0769
2023-05-09T01:00:01.170Z,674.0000
2023-05-09T01:01:03.857Z,676.2308
2023-05-09T01:02:06.361Z,674.4615
2023-05-09T01:03:09.124Z,672.4615
2023-05-09T01:04:11.576Z,664.8461
2023-05-09T01:05:14.545Z,653.1539
2023-05-09T01:06:17.269Z,647.8461
2023-05-09T01:07:19.394Z,645.7692
2023-05-09T01:08:21.975Z,643.2308
2023-05-09T01:09:24.683Z,638.8461
2023-05-09T01:10:27.175Z,635.7692
2023-05-09T01:11:29.785Z,631.9231
2023-05-09T01:12:32.366Z,628.8461
2023-05-09T01:13:35.002Z,627.0000
2023-05-09T01:14:37.562Z,625.2308
2023-05-09T01:15:40.219Z,625.2308
2023-05-09T01:16:42.789Z,624.7692
2023-05-09T01:17:45.401Z,622.9231
2023-05-09T01:18:47.956Z,621.3077
2023-05-09T01:19:50.583Z,616.6923
2023-05-09T01:20:53.157Z,614.1539
2023-05-09T01:21:55.802Z,617.5385
2023-05-09T01:22:58.353Z,622.3077
2023-05-09T01:24:01.007Z,625.8461
2023-05-09T01:25:03.663Z,626.6154
2023-05-09T01:26:06.261Z,631.5385
2023-05-09T01:27:08.779Z,631.2308
2023-05-09T01:28:11.382Z,633.4615
2023-05-09T01:29:13.975Z,630.6154
2023-05-09T01:30:16.586Z,623.3846
2023-05-09T01:32:29.337Z,648.2857
2023-05-09T01:33:31.916Z,643.3077
2023-05-09T01:34:34.496Z,642.6154
2023-05-09T01:35:37.126Z,642.3077
2023-05-09T01:36:39.695Z,643.3077
2023-05-09T01:37:42.340Z,644.1539
2023-05-09T01:38:44.906Z,646.1539
2023-05-09T01:39:47.543Z,649.7692
2023-05-09T01:40:50.299Z,651.8461
2023-05-09T01:41:52.720Z,656.0000
2023-05-09T01:42:55.308Z,659.5385
2023-05-09T01:43:57.942Z,659.6154
2023-05-09T01:45:00.544Z,662.3077
2023-05-09T01:46:03.120Z,663.5385
2023-05-09T01:47:05.989Z,662.7692
2023-05-09T01:48:08.438Z,663.5385
2023-05-09T01:49:10.903Z,662.9231
2023-05-09T01:50:13.552Z,661.5385
2023-05-09T01:51:16.089Z,659.3077
2023-05-09T01:52:18.734Z,655.6923
2023-05-09T01:53:21.288Z,648.9231
2023-05-09T01:54:23.913Z,647.6154
2023-05-09T01:55:26.484Z,643.1539
2023-05-09T01:56:29.211Z,640.7692
2023-05-09T01:57:31.680Z,638.8461
2023-05-09T01:58:34.306Z,635.3846
2023-05-09T01:59:36.865Z,632.6923
2023-05-09T02:02:04.077Z,633.4286
2023-05-09T02:03:06.667Z,632.5385
2023-05-09T02:04:09.214Z,632.0000
2023-05-09T02:05:12.098Z,632.1539
2023-05-09T02:06:14.416Z,632.0769
2023-05-09T02:07:17.035Z,630.8461
2023-05-09T02:08:19.612Z,633.3077
2023-05-09T02:09:22.778Z,634.8461
2023-05-09T02:10:24.817Z,636.4615
2023-05-09T02:11:27.435Z,636.9231
2023-05-09T02:12:30.116Z,635.7692
2023-05-09T02:13:32.658Z,633.1539
2023-05-09T02:14:35.199Z,631.4615
2023-05-09T02:15:37.820Z,631.4615
2023-05-09T02:16:40.463Z,632.3077
2023-05-09T02:17:43.031Z,637.3846
2023-05-09T02:18:45.627Z,640.0769
2023-05-09T02:20:58.937Z,643.2857
2023-05-09T02:22:00.925Z,640.3846
2023-05-09T02:23:03.558Z,640.3077
2023-05-09T02:24:06.121Z,642.0000
2023-05-09T02:25:08.952Z,645.3846
2023-05-09T02:26:11.317Z,645.8461
2023-05-09T02:27:13.951Z,645.7692
2023-05-09T02:28:16.642Z,647.3846
2023-05-09T02:29:19.156Z,649.0769
2023-05-09T02:30:21.755Z,651.0769
2023-05-09T02:31:24.469Z,650.1539
2023-05-09T02:32:26.950Z,646.0000
2023-05-09T02:33:29.567Z,642.9231
2023-05-09T02:34:32.136Z,643.0769
2023-05-09T02:35:34.747Z,641.3077
2023-05-09T02:36:37.326Z,643.4615
2023-05-09T02:37:39.964Z,640.8461
2023-05-09T02:38:42.545Z,639.3846
2023-05-09T02:39:45.155Z,638.4615
2023-05-09T02:40:47.733Z,637.5385
2023-05-09T02:41:50.524Z,636.2308
2023-05-09T02:42:52.927Z,638.1539
2023-05-09T02:43:55.653Z,639.7692
2023-05-09T02:44:58.148Z,637.1539
2023-05-09T02:46:00.787Z,636.6154
2023-05-09T02:47:03.341Z,635.7692
2023-05-09T02:48:08.353Z,636.9231
2023-05-09T02:49:09.131Z,636.0000
2023-05-09T02:50:11.169Z,636.5385
2023-05-09T02:51:13.839Z,638.3846
2023-05-09T02:52:16.372Z,638.3846
2023-05-09T02:53:18.940Z,638.8461
2023-05-09T02:54:21.558Z,639.0000
2023-05-09T02:55:24.139Z,639.8461
2023-05-09T02:56:26.762Z,640.5385
2023-05-09T02:57:29.332Z,638.5385
2023-05-09T02:58:31.956Z,636.6923
2023-05-09T02:59:34.629Z,635.7692
2023-05-09T03:00:37.155Z,635.1539
2023-05-09T03:01:39.773Z,633.1539
2023-05-09T03:02:42.403Z,632.5385
2023-05-09T03:03:44.983Z,634.2308
2023-05-09T03:04:47.544Z,635.9231
2023-05-09T03:05:50.112Z,638.6923
2023-05-09T03:06:52.736Z,639.6154
2023-05-09T03:07:55.311Z,636.8461
2023-05-09T03:08:57.939Z,634.9231
2023-05-09T03:10:00.518Z,633.0769
2023-05-09T03:11:03.146Z,633.1539
2023-05-09T03:12:05.764Z,633.3846
2023-05-09T03:13:08.417Z,632.2308
2023-05-09T03:14:11.036Z,631.5385
2023-05-09T03:15:13.862Z,635.0769
2023-05-09T03:16:16.141Z,643.6923
2023-05-09T03:17:18.751Z,639.9231
2023-05-09T03:18:21.302Z,641.8461
2023-05-09T03:19:23.914Z,642.5385
2023-05-09T03:20:26.499Z,641.1539
2023-05-09T03:21:29.105Z,639.3077
2023-05-09T03:22:31.697Z,637.7692
2023-05-09T03:23:34.310Z,637.4615
2023-05-09T03:24:36.866Z,632.0000
2023-05-09T03:25:39.495Z,635.0769
2023-05-09T03:26:42.063Z,635.4615
2023-05-09T03:27:44.685Z,634.0000
2023-05-09T03:28:47.255Z,635.8461
2023-05-09T03:29:49.914Z,634.0769
2023-05-09T03:30:52.567Z,634.2308
2023-05-09T03:31:55.216Z,635.0000
2023-05-09T03:32:57.681Z,634.6154
2023-05-09T03:34:00.278Z,637.4615
2023-05-09T03:35:02.846Z,638.8461
2023-05-09T03:36:05.482Z,636.6923
2023-05-09T03:37:08.031Z,639.9231
2023-05-09T03:38:10.936Z,642.2308
2023-05-09T03:39:13.250Z,640.4615
2023-05-09T03:40:15.855Z,641.0769
2023-05-09T03:41:18.432Z,641.4615
2023-05-09T03:42:21.054Z,643.2308
2023-05-09T03:43:23.630Z,644.8461
2023-05-09T03:44:26.256Z,641.6154
2023-05-09T03:45:28.841Z,634.3846
2023-05-09T03:46:31.541Z,633.2308
2023-05-09T03:47:34.120Z,630.5385
2023-05-09T03:48:36.631Z,631.0769
2023-05-09T03:49:39.202Z,628.1539
2023-05-09T03:50:41.852Z,629.3846
2023-05-09T03:51:44.394Z,635.4615
2023-05-09T03:52:47.027Z,630.3077
2023-05-09T03:53:49.742Z,625.0769
2023-05-09T03:54:52.224Z,624.9231
2023-05-09T03:55:54.800Z,628.7692
2023-05-09T03:56:57.423Z,631.6923
2023-05-09T03:57:59.991Z,634.0000
2023-05-09T03:59:02.610Z,633.6923
2023-05-09T04:00:05.196Z,635.0000
2023-05-09T04:01:07.809Z,637.6154
2023-05-09T04:02:10.501Z,645.4615
2023-05-09T04:03:13.065Z,643.6923
2023-05-09T04:04:15.598Z,638.0769
2023-05-09T04:05:18.249Z,635.8461
2023-05-09T04:06:20.784Z,636.3846
2023-05-09T04:07:23.422Z,637.1539
2023-05-09T04:08:25.996Z,635.6154
2023-05-09T04:09:28.611Z,636.2308
2023-05-09T04:10:31.185Z,639.7692
2023-05-09T04:11:33.803Z,641.9231
2023-05-09T04:12:36.407Z,642.0000
2023-05-09T04:13:39.011Z,640.9231
2023-05-09T04:14:41.597Z,634.5385
2023-05-09T04:15:44.206Z,639.3077
2023-05-09T04:16:46.795Z,641.3846
2023-05-09T04:17:49.577Z,637.4615
2023-05-09T04:18:51.983Z,634.2308
2023-05-09T04:19:54.618Z,631.5385
2023-05-09T04:20:57.189Z,628.3846
2023-05-09T04:21:59.815Z,631.0769
2023-05-09T04:23:02.383Z,626.3846
2023-05-09T04:26:03.284Z,641.4286
2023-05-09T04:27:05.904Z,641.5385
2023-05-09T04:28:08.480Z,638.5385
2023-05-09T04:29:11.103Z,635.3077
2023-05-09T04:30:13.678Z,631.0000
2023-05-09T04:31:16.436Z,631.6154
2023-05-09T04:32:18.926Z,632.0769
2023-05-09T04:33:21.609Z,634.2308
2023-05-09T04:34:24.091Z,636.0769
2023-05-09T04:35:26.722Z,635.4615
2023-05-09T04:36:29.370Z,636.0769
2023-05-09T04:37:31.906Z,636.4615
2023-05-09T04:38:34.507Z,637.6923
2023-05-09T04:39:37.099Z,636.5385
2023-05-09T04:40:39.709Z,636.7692
2023-05-09T04:41:42.321Z,636.9231
2023-05-09T04:42:44.913Z,637.9231
2023-05-09T04:43:47.775Z,637.8461
2023-05-09T04:44:50.074Z,638.3846
2023-05-09T04:45:52.745Z,632.7692
2023-05-09T04:46:55.273Z,629.0769
2023-05-09T04:47:57.949Z,630.6154
2023-05-09T04:49:00.573Z,630.6923
2023-05-09T04:50:03.092Z,632.7692
2023-05-09T04:51:05.684Z,635.3846
2023-05-09T04:52:08.289Z,636.4615
2023-05-09T04:53:10.864Z,639.8461
2023-05-09T04:54:13.498Z,643.2308
2023-05-09T04:55:16.235Z,648.3846
2023-05-09T04:56:18.680Z,645.1539
2023-05-09T04:57:21.263Z,643.6923
2023-05-09T04:58:23.893Z,642.7692
2023-05-09T04:59:26.463Z,641.6154
2023-05-09T05:00:29.095Z,644.4615
2023-05-09T05:01:31.687Z,645.2308
2023-05-09T05:02:34.327Z,644.3077
2023-05-09T05:03:36.841Z,643.7692
2023-05-09T05:04:39.597Z,640.1539
2023-05-09T05:05:42.062Z,638.5385
2023-05-09T05:06:44.671Z,637.7692
2023-05-09T05:07:47.242Z,637.3846
2023-05-09T05:08:49.843Z,637.1539
2023-05-09T05:09:52.423Z,635.6154
2023-05-09T05:10:55.043Z,636.1539
2023-05-09T05:12:01.845Z,636.4615
2023-05-09T05:13:00.268Z,638.3077
2023-05-09T05:14:02.833Z,639.4615
2023-05-09T05:15:05.450Z,638.6154
2023-05-09T05:16:08.039Z,637.0000
2023-05-09T05:17:10.643Z,639.3077
2023-05-09T05:18:13.219Z,641.3846
2023-05-09T05:19:15.860Z,646.6923
2023-05-09T05:20:18.552Z,634.0769
2023-05-09T05:21:21.046Z,639.9231
2023-05-09T05:22:23.651Z,639.7692
2023-05-09T05:23:26.254Z,639.7692
2023-05-09T05:24:28.828Z,636.3846
2023-05-09T05:25:31.443Z,633.3846
2023-05-09T05:26:34.030Z,638.0769
2023-05-09T05:27:36.674Z,637.6154
2023-05-09T05:28:39.221Z,637.0000
2023-05-09T05:29:41.848Z,638.9231
2023-05-09T05:30:44.418Z,635.1539
2023-05-09T05:31:47.137Z,631.9231
2023-05-09T05:32:49.676Z,634.9231
2023-05-09T05:33:52.245Z,634.0769
2023-05-09T05:36:14.572Z,632.2857
2023-05-09T05:37:17.189Z,627.1539
2023-05-09T05:38:19.817Z,631.2308
2023-05-09T05:39:22.397Z,641.5385
2023-05-09T05:40:24.969Z,643.6923
2023-05-09T05:41:27.608Z,639.9231
2023-05-09T05:42:30.176Z,621.0000
2023-05-09T05:43:32.805Z,625.4615
2023-05-09T05:44:35.383Z,629.4615
2023-05-09T05:45:38.057Z,629.1539
2023-05-09T05:46:40.571Z,632.3846
2023-05-09T05:47:43.240Z,636.3077
2023-05-09T05:48:45.773Z,630.4615
2023-05-09T05:49:48.395Z,631.9231
2023-05-09T05:50:50.966Z,631.7692
2023-05-09T05:51:53.680Z,633.5385
2023-05-09T05:52:56.176Z,637.9231
2023-05-09T05:53:58.938Z,635.1539
2023-05-09T05:55:01.366Z,633.6154
2023-05-09T05:56:03.986Z,630.4615
2023-05-09T05:57:06.568Z,628.0769
2023-05-09T05:58:09.212Z,625.3077
2023-05-09T05:59:13.428Z,630.3077
2023-05-09T06:00:14.402Z,625.5385
2023-05-09T06:01:16.983Z,626.8461
2023-05-09T06:02:19.618Z,631.0769
2023-05-09T06:03:22.249Z,636.0000
2023-05-09T06:04:24.804Z,636.6923
2023-05-09T06:05:27.368Z,630.0769
2023-05-09T06:06:29.991Z,626.4615
2023-05-09T06:07:32.673Z,629.7692
2023-05-09T06:08:35.195Z,634.3077
2023-05-09T06:09:37.764Z,633.8461
2023-05-09T06:10:40.390Z,627.8461
2023-05-09T06:11:42.968Z,629.4615
2023-05-09T06:12:45.651Z,628.8461
2023-05-09T06:13:48.176Z,631.9231
2023-05-09T06:14:50.799Z,635.3846
2023-05-09T06:15:53.364Z,639.1539
2023-05-09T06:16:56.009Z,641.0000
2023-05-09T06:17:58.700Z,637.3077
2023-05-09T06:19:01.185Z,638.6923
2023-05-09T06:20:03.901Z,636.3077
2023-05-09T06:21:06.390Z,630.8461
2023-05-09T06:22:08.954Z,633.6154
2023-05-09T06:23:11.664Z,631.0000
2023-05-09T06:24:23.522Z,631.0769
2023-05-09T06:25:16.977Z,630.8461
2023-05-09T06:26:19.341Z,632.5385
2023-05-09T06:27:21.969Z,630.6154
2023-05-09T06:28:24.544Z,629.4615
2023-05-09T06:29:27.164Z,627.4615
2023-05-09T06:30:29.766Z,621.3846
2023-05-09T06:31:32.361Z,628.5385
2023-05-09T06:32:35.012Z,623.1539
2023-05-09T06:33:37.543Z,626.3846
2023-05-09T06:34:40.099Z,625.6154
2023-05-09T06:35:42.727Z,619.5385
2023-05-09T06:36:45.291Z,627.7692
2023-05-09T06:37:48.760Z,627.9231
2023-05-09T06:38:50.590Z,628.4615
2023-05-09T06:39:53.119Z,623.8461
2023-05-09T06:40:55.679Z,622.1539
2023-05-09T06:41:58.305Z,624.3077
2023-05-09T06:43:00.873Z,625.0000
2023-05-09T06:44:03.493Z,622.4615
2023-05-09T06:45:06.114Z,625.2308
2023-05-09T06:46:08.762Z,628.4615
2023-05-09T06:47:11.262Z,627.3846
2023-05-09T06:48:14.497Z,622.5385
2023-05-09T06:49:16.439Z,620.7692
2023-05-09T06:50:19.060Z,620.6923
2023-05-09T06:51:21.640Z,620.3846
2023-05-09T06:52:24.259Z,619.2308
2023-05-09T06:53:26.822Z,618.5385
2023-05-09T06:54:29.518Z,616.3077
2023-05-09T06:55:32.017Z,614.0769
2023-05-09T06:56:34.630Z,615.7692
2023-05-09T06:57:37.185Z,618.2308
2023-05-09T06:58:39.812Z,621.3846
2023-05-09T06:59:42.388Z,620.3077
2023-05-09T07:00:44.996Z,618.0000
2023-05-09T07:01:47.604Z,618.2308
2023-05-09T07:02:50.247Z,618.3846
2023-05-09T07:03:52.738Z,619.0000
2023-05-09T07:04:55.401Z,615.7692
2023-05-09T07:05:57.927Z,614.1539
2023-05-09T07:07:00.552Z,615.7692
2023-05-09T07:08:03.122Z,608.3077
2023-05-09T07:09:05.720Z,615.0000
2023-05-09T07:10:11.799Z,617.3846
2023-05-09T07:11:10.901Z,622.3077
2023-05-09T07:12:13.481Z,619.2308
2023-05-09T07:13:16.108Z,620.3077
2023-05-09T07:14:18.660Z,618.7692
2023-05-09T07:15:36.871Z,616.4615
2023-05-09T07:16:23.893Z,615.0769
2023-05-09T07:17:26.526Z,614.3077
2023-05-09T07:18:29.020Z,613.5385
2023-05-09T07:19:31.636Z,613.9231
2023-05-09T07:20:34.217Z,611.0769
2023-05-09T07:21:36.833Z,608.0000
2023-05-09T07:22:39.415Z,603.7692
2023-05-09T07:23:42.008Z,604.3846
2023-05-09T07:24:44.632Z,601.6154
2023-05-09T07:25:47.291Z,604.4615
2023-05-09T07:26:49.892Z,605.6923
2023-05-09T07:27:52.372Z,607.7692
2023-05-09T07:28:54.936Z,608.6154
2023-05-09T07:29:57.567Z,610.1539
2023-05-09T07:31:00.157Z,608.8461
2023-05-09T07:32:02.792Z,610.0000
2023-05-09T07:33:05.316Z,608.7692
2023-05-09T07:34:07.978Z,611.3846
2023-05-09T07:35:10.493Z,606.0000
2023-05-09T07:36:13.091Z,614.0769
2023-05-09T07:37:16.498Z,613.4615
2023-05-09T07:38:18.287Z,605.3077
2023-05-09T07:39:20.855Z,611.1539
2023-05-09T07:40:23.490Z,613.1539
2023-05-09T07:41:26.110Z,613.0769
2023-05-09T07:42:28.618Z,608.6923
2023-05-09T07:43:31.185Z,611.6923
2023-05-09T07:44:33.812Z,605.3846
2023-05-09T07:45:38.144Z,603.3077
2023-05-09T07:46:38.974Z,600.0000
2023-05-09T07:47:41.576Z,605.8461
2023-05-09T07:48:44.158Z,608.6923
2023-05-09T07:49:46.780Z,600.1539
2023-05-09T07:50:49.361Z,604.4615
2023-05-09T07:51:51.893Z,613.3077
2023-05-09T07:53:59.681Z,608.6429
2023-05-09T07:55:02.313Z,598.2308
2023-05-09T07:56:05.250Z,600.2308
2023-05-09T07:57:07.572Z,604.7692
2023-05-09T07:58:10.054Z,609.9231
2023-05-09T07:59:12.696Z,606.6154
2023-05-09T08:00:15.316Z,609.9231
2023-05-09T08:01:17.873Z,611.7692
2023-05-09T08:02:20.469Z,611.6154
2023-05-09T08:03:23.141Z,613.9231
2023-05-09T08:04:25.624Z,615.6154
2023-05-09T08:05:28.233Z,610.7692
2023-05-09T08:06:30.794Z,606.3846
2023-05-09T08:07:33.400Z,608.0769
2023-05-09T08:08:38.285Z,609.8461
2023-05-09T08:09:38.604Z,603.9231
2023-05-09T08:10:41.173Z,612.1539
2023-05-09T08:11:44.064Z,615.0769
2023-05-09T08:12:46.470Z,613.9231
2023-05-09T08:13:48.966Z,611.2308
2023-05-09T08:14:51.558Z,606.0000
2023-05-09T08:15:54.166Z,598.8461
2023-05-09T08:16:56.711Z,594.3846
2023-05-09T08:17:59.377Z,595.2308
2023-05-09T08:19:02.164Z,596.0000
2023-05-09T08:20:04.515Z,595.3077
2023-05-09T08:21:07.100Z,594.1539
2023-05-09T08:22:09.697Z,591.9231
2023-05-09T08:23:12.264Z,589.2308
2023-05-09T08:24:14.882Z,594.2308
2023-05-09T08:25:17.561Z,596.8461
2023-05-09T08:27:59.044Z,594.6429
2023-05-09T08:29:01.560Z,592.2308
2023-05-09T08:30:04.136Z,591.2308
2023-05-09T08:31:06.795Z,590.8461
2023-05-09T08:32:09.838Z,591.3846
2023-05-09T08:33:11.956Z,592.0769
2023-05-09T08:34:14.507Z,592.6154
2023-05-09T08:35:17.431Z,592.2308
2023-05-09T08:36:19.863Z,594.6923
2023-05-09T08:37:22.289Z,598.8461
2023-05-09T08:38:24.898Z,603.7692
2023-05-09T08:39:27.473Z,606.5385
2023-05-09T08:40:30.045Z,599.9231
2023-05-09T08:42:42.652Z,606.1429
2023-05-09T08:43:45.349Z,596.7692
2023-05-09T08:44:47.826Z,597.6154
2023-05-09T08:45:50.469Z,590.2308
2023-05-09T08:46:53.082Z,586.2308
2023-05-09T08:47:55.651Z,595.7692
2023-05-09T08:48:58.210Z,593.3077
2023-05-09T08:50:00.816Z,589.2308
2023-05-09T08:51:03.385Z,582.6154
2023-05-09T08:52:06.007Z,590.8461
2023-05-09T08:53:08.617Z,594.5385
2023-05-09T08:54:11.183Z,590.5385
2023-05-09T08:55:13.778Z,590.3077
2023-05-09T08:56:16.473Z,582.5385
2023-05-09T08:57:18.934Z,585.1539
2023-05-09T09:00:17.232Z,595.5000
2023-05-09T09:01:17.507Z,587.3077
2023-05-09T09:02:20.118Z,579.3846
2023-05-09T09:03:22.680Z,579.0769
2023-05-09T09:04:25.313Z,579.7692
2023-05-09T09:05:40.730Z,583.0000
2023-05-09T09:06:30.482Z,583.4615
2023-05-09T09:07:33.047Z,585.0000
2023-05-09T09:08:35.672Z,583.6923
2023-05-09T09:09:38.256Z,581.2308
2023-05-09T09:10:40.845Z,582.2308
2023-05-09T09:11:43.415Z,590.3846
2023-05-09T09:12:47.107Z,594.2308
2023-05-09T09:13:48.584Z,591.3077
2023-05-09T09:14:51.194Z,591.2308
2023-05-09T09:15:53.879Z,593.5385
2023-05-09T09:16:56.420Z,594.6923
2023-05-09T09:17:58.979Z,595.0769
2023-05-09T09:19:01.579Z,596.6923
2023-05-09T09:20:04.120Z,585.5385
2023-05-09T09:21:06.729Z,586.0000
2023-05-09T09:22:09.308Z,586.8461
2023-05-09T09:23:11.933Z,580.0769
2023-05-09T09:24:14.478Z,582.3077
2023-05-09T09:25:18.305Z,586.1539
2023-05-09T09:26:19.653Z,586.6923
2023-05-09T09:27:22.407Z,586.5385
2023-05-09T09:28:24.834Z,587.7692
2023-05-09T09:29:27.749Z,584.7692
2023-05-09T09:30:30.004Z,583.6154
2023-05-09T09:31:32.650Z,579.8461
2023-05-09T09:32:35.252Z,576.7692
2023-05-09T09:33:37.797Z,579.2308
2023-05-09T09:34:40.373Z,580.3846
2023-05-09T09:35:42.962Z,583.5385
2023-05-09T09:36:45.523Z,576.3077
2023-05-09T09:37:48.146Z,576.4615
2023-05-09T09:38:50.839Z,583.3846
2023-05-09T09:39:53.310Z,579.0000
2023-05-09T09:40:55.927Z,584.8461
2023-05-09T09:41:58.490Z,582.0000
2023-05-09T09:43:01.045Z,582.3846
2023-05-09T09:44:03.663Z,575.2308
2023-05-09T09:45:06.325Z,573.0769
2023-05-09T09:46:08.894Z,575.9231
2023-05-09T09:48:21.471Z,585.2143
2023-05-09T09:49:23.979Z,584.6154
2023-05-09T09:50:26.574Z,575.0769
2023-05-09T09:51:29.127Z,574.9231
2023-05-09T09:52:31.736Z,579.1539
2023-05-09T09:53:34.299Z,549.4615
2023-05-09T09:54:36.925Z,569.3846
2023-05-09T09:55:39.506Z,578.1539
2023-05-09T09:56:42.305Z,572.3846
2023-05-09T09:57:44.673Z,576.4615
2023-05-09T09:58:47.336Z,585.1539
2023-05-09T09:59:49.863Z,583.5385
2023-05-09T10:00:52.465Z,579.4615
2023-05-09T10:01:55.020Z,584.3846
2023-05-09T10:02:57.785Z,584.2308
2023-05-09T10:04:00.322Z,584.3846
2023-05-09T10:05:02.818Z,587.0769
2023-05-09T10:06:05.378Z,577.3077
2023-05-09T10:07:07.984Z,573.0769
2023-05-09T10:08:10.549Z,579.7692
2023-05-09T10:09:13.177Z,585.5385
2023-05-09T10:10:16.089Z,571.2308
2023-05-09T10:11:18.356Z,574.2308
2023-05-09T10:12:20.912Z,577.7692
2023-05-09T10:13:23.848Z,577.3077
2023-05-09T10:14:26.108Z,575.6923
2023-05-09T10:15:30.055Z,577.3077
2023-05-09T10:16:42.721Z,578.1539
2023-05-09T10:17:33.987Z,580.4615
2023-05-09T10:18:36.536Z,582.0000
2023-05-09T10:19:39.618Z,579.0000
2023-05-09T10:20:41.646Z,576.6923
2023-05-09T10:21:42.246Z,580.5833
2023-05-09T10:22:46.837Z,579.7857
2023-05-09T10:23:50.515Z,579.2308
2023-05-09T10:24:55.629Z,581.3077
2023-05-09T10:25:54.627Z,580.4615
2023-05-09T10:26:57.255Z,583.3846
2023-05-09T10:27:59.939Z,585.0000
2023-05-09T10:29:02.364Z,578.8461
2023-05-09T10:30:04.953Z,579.7692
2023-05-09T10:31:08.964Z,577.1539
2023-05-09T10:32:10.094Z,568.6154
2023-05-09T10:33:12.775Z,582.3846
2023-05-09T10:34:15.274Z,586.2308
2023-05-09T10:35:17.984Z,579.0000
2023-05-09T10:36:20.522Z,572.3846
2023-05-09T10:37:23.082Z,575.3077
2023-05-09T10:38:25.672Z,564.1539
2023-05-09T10:39:28.241Z,574.2308
2023-05-09T10:40:30.801Z,576.5385
2023-05-09T10:41:33.408Z,574.5385
2023-05-09T10:42:35.982Z,564.0000
2023-05-09T10:45:17.638Z,579.4615
2023-05-09T10:46:19.980Z,582.2308
2023-05-09T10:47:22.574Z,590.2308
2023-05-09T10:48:25.136Z,583.1539
2023-05-09T10:49:28.031Z,578.6923
2023-05-09T10:50:30.394Z,573.0769
2023-05-09T10:51:32.923Z,570.4615
2023-05-09T10:52:35.484Z,560.0769
2023-05-09T10:53:38.084Z,557.4615
2023-05-09T10:54:40.644Z,557.3077
2023-05-09T10:57:02.826Z,559.0714
2023-05-09T10:58:05.376Z,569.1539
2023-05-09T10:59:07.995Z,562.0769
2023-05-09T11:00:10.560Z,565.1539
2023-05-09T11:01:13.204Z,566.0769
2023-05-09T11:02:15.728Z,568.4615
2023-05-09T11:03:18.408Z,565.3846
2023-05-09T11:04:20.922Z,570.9231
2023-05-09T11:05:23.531Z,578.7692
2023-05-09T11:06:26.189Z,576.1539
2023-05-09T11:07:28.702Z,573.2308
2023-05-09T11:08:31.306Z,570.6154
2023-05-09T11:09:34.133Z,571.2308
2023-05-09T11:10:36.441Z,569.5385
2023-05-09T11:11:39.040Z,573.3846
2023-05-09T11:12:41.814Z,579.6923
2023-05-09T11:13:44.209Z,576.6154
2023-05-09T11:14:46.766Z,575.0000
2023-05-09T11:15:49.385Z,574.4615
2023-05-09T11:16:51.961Z,579.2308
2023-05-09T11:17:54.626Z,578.7692
2023-05-09T11:18:57.119Z,577.4615
2023-05-09T11:19:59.733Z,577.7692
2023-05-09T11:21:02.285Z,576.3846
2023-05-09T11:22:05.006Z,575.7692
2023-05-09T11:24:51.071Z,578.1429
2023-05-09T11:25:53.723Z,571.3077
2023-05-09T11:26:56.456Z,573.6923
2023-05-09T11:27:58.854Z,576.8461
2023-05-09T11:29:01.412Z,577.5385
2023-05-09T11:30:04.041Z,576.0000
2023-05-09T11:31:06.624Z,579.4615
2023-05-09T11:32:09.248Z,581.3846
2023-05-09T11:33:11.781Z,582.6154
2023-05-09T11:34:14.361Z,582.0769
2023-05-09T11:35:17.232Z,581.5385
2023-05-09T11:36:19.581Z,578.3846
2023-05-09T11:37:22.193Z,576.0000
2023-05-09T11:38:24.712Z,573.3077
2023-05-09T11:39:27.272Z,572.3077
2023-05-09T11:40:29.890Z,577.2308
2023-05-09T11:41:32.471Z,576.4615
2023-05-09T11:42:35.049Z,573.7692
2023-05-09T11:43:37.603Z,570.3846
2023-05-09T11:44:40.218Z,570.7692
2023-05-09T11:45:42.771Z,570.6154
2023-05-09T11:46:45.374Z,572.5385
2023-05-09T11:47:47.979Z,573.4615
2023-05-09T11:48:50.545Z,570.5385
2023-05-09T11:49:53.096Z,568.9231
2023-05-09T11:50:55.714Z,570.9231
2023-05-09T11:51:58.265Z,571.1539
2023-05-09T11:53:01.125Z,573.6923
2023-05-09T11:54:03.435Z,571.2308
2023-05-09T11:55:06.031Z,572.2308
2023-05-09T11:56:08.603Z,569.5385
2023-05-09T11:57:11.210Z,574.5385
2023-05-09T11:58:13.766Z,572.3846
2023-05-09T11:59:16.500Z,573.0000
2023-05-09T12:00:18.926Z,577.8461
2023-05-09T12:01:21.555Z,579.7692
2023-05-09T12:02:24.196Z,590.5385
2023-05-09T12:03:27.159Z,575.6154
2023-05-09T12:06:22.547Z,564.8571
2023-05-09T12:07:25.118Z,563.8461
2023-05-09T12:08:27.809Z,562.6923
2023-05-09T12:09:30.303Z,564.2308
2023-05-09T12:10:33.275Z,568.2308
2023-05-09T12:11:35.480Z,559.9231
2023-05-09T12:12:38.073Z,573.5385
2023-05-09T12:13:40.629Z,575.7692
2023-05-09T12:14:43.254Z,573.6154
2023-05-09T12:15:45.885Z,576.0769
2023-05-09T12:16:48.423Z,574.6923
2023-05-09T12:17:52.096Z,574.0769
2023-05-09T12:18:53.574Z,567.8461
2023-05-09T12:19:56.140Z,567.8461
2023-05-09T12:20:58.761Z,564.0000
2023-05-09T12:22:01.293Z,566.0000
2023-05-09T12:23:03.900Z,569.4615
2023-05-09T12:24:06.566Z,568.4615
2023-05-09T12:25:09.067Z,568.1539
2023-05-09T12:26:11.650Z,570.6923
2023-05-09T12:27:14.249Z,574.8461
2023-05-09T12:28:16.809Z,573.3846
2023-05-09T12:29:19.415Z,566.3846
2023-05-09T12:30:21.973Z,567.4615
2023-05-09T12:31:24.641Z,560.6923
2023-05-09T12:32:27.144Z,567.2308
2023-05-09T12:33:29.757Z,564.9231
2023-05-09T12:34:32.301Z,566.6923
2023-05-09T12:35:34.911Z,566.0000
2023-05-09T12:36:37.471Z,563.5385
2023-05-09T12:37:40.093Z,570.5385
2023-05-09T12:38:42.651Z,569.3846